sensor_id;sensor_type;location;lat;lon;timestamp;pressure;altitude;pressure_sealevel;temperature;humidity
30110;BME280;14965;50.660;13.226;2022-11-06T00:00:38;95249.88;;;1.84;96.33
30110;BME280;14965;50.660;13.226;2022-11-06T00:03:04;95254.16;;;1.85;97.10
30110;BME280;14965;50.660;13.226;2022-11-06T00:05:31;95254.94;;;1.86;97.01
30110;BME280;14965;50.660;13.226;2022-11-06T00:07:57;95245.56;;;1.83;96.14
30110;BME280;14965;50.660;13.226;2022-11-06T00:10:23;95251.00;;;1.83;96.58
30110;BME280;14965;50.660;13.226;2022-11-06T00:12:49;95245.56;;;1.83;96.50
30110;BME280;14965;50.660;13.226;2022-11-06T00:15:16;95246.34;;;1.84;96.21
30110;BME280;14965;50.660;13.226;2022-11-06T00:17:47;95236.28;;;1.88;96.66
30110;BME280;14965;50.660;13.226;2022-11-06T00:20:13;95241.03;;;1.94;96.55
30110;BME280;14965;50.660;13.226;2022-11-06T00:22:39;95237.94;;;1.99;97.10
30110;BME280;14965;50.660;13.226;2022-11-06T00:25:06;95238.41;;;2.05;97.08
30110;BME280;14965;50.660;13.226;2022-11-06T00:27:34;95232.63;;;2.10;97.58
30110;BME280;14965;50.660;13.226;2022-11-06T00:30:00;95233.44;;;2.14;98.46
30110;BME280;14965;50.660;13.226;2022-11-06T00:32:26;95235.81;;;2.19;98.66
30110;BME280;14965;50.660;13.226;2022-11-06T00:34:54;95226.47;;;2.20;98.66
30110;BME280;14965;50.660;13.226;2022-11-06T00:37:20;95229.63;;;2.22;98.62
30110;BME280;14965;50.660;13.226;2022-11-06T00:39:46;95228.84;;;2.25;99.47
30110;BME280;14965;50.660;13.226;2022-11-06T00:42:12;95229.28;;;2.28;98.97
30110;BME280;14965;50.660;13.226;2022-11-06T00:44:38;95233.56;;;2.29;98.81
30110;BME280;14965;50.660;13.226;2022-11-06T00:47:04;95230.47;;;2.30;98.92
30110;BME280;14965;50.660;13.226;2022-11-06T00:49:30;95230.47;;;2.30;98.53
30110;BME280;14965;50.660;13.226;2022-11-06T00:51:58;95228.53;;;2.31;99.15
30110;BME280;14965;50.660;13.226;2022-11-06T00:54:24;95236.69;;;2.31;99.08
30110;BME280;14965;50.660;13.226;2022-11-06T00:56:50;95241.00;;;2.32;99.30
30110;BME280;14965;50.660;13.226;2022-11-06T00:59:16;95235.16;;;2.33;98.64
30110;BME280;14965;50.660;13.226;2022-11-06T01:01:44;95239.06;;;2.36;99.35
30110;BME280;14965;50.660;13.226;2022-11-06T01:04:13;95240.63;;;2.37;99.05
30110;BME280;14965;50.660;13.226;2022-11-06T01:06:42;95233.66;;;2.39;98.86
30110;BME280;14965;50.660;13.226;2022-11-06T01:09:13;95240.28;;;2.42;99.61
30110;BME280;14965;50.660;13.226;2022-11-06T01:11:42;95247.72;;;2.45;99.17
30110;BME280;14965;50.660;13.226;2022-11-06T01:14:12;95248.13;;;2.47;99.33
30110;BME280;14965;50.660;13.226;2022-11-06T01:16:39;95251.22;;;2.45;99.25
30110;BME280;14965;50.660;13.226;2022-11-06T01:19:06;95246.16;;;2.44;98.82
30110;BME280;14965;50.660;13.226;2022-11-06T01:21:35;95238.34;;;2.42;98.98
30110;BME280;14965;50.660;13.226;2022-11-06T01:24:06;95237.16;;;2.40;98.45
30110;BME280;14965;50.660;13.226;2022-11-06T01:26:34;95231.28;;;2.38;98.16
30110;BME280;14965;50.660;13.226;2022-11-06T01:29:00;95231.69;;;2.36;98.75
30110;BME280;14965;50.660;13.226;2022-11-06T01:31:30;95239.47;;;2.38;98.44
30110;BME280;14965;50.660;13.226;2022-11-06T01:33:59;95227.78;;;2.37;98.48
30110;BME280;14965;50.660;13.226;2022-11-06T01:36:26;95225.44;;;2.36;98.67
30110;BME280;14965;50.660;13.226;2022-11-06T01:39:02;95224.25;;;2.33;98.73
30110;BME280;14965;50.660;13.226;2022-11-06T01:41:34;95223.47;;;2.33;98.71
30110;BME280;14965;50.660;13.226;2022-11-06T01:44:03;95222.69;;;2.32;98.11
30110;BME280;14965;50.660;13.226;2022-11-06T01:46:32;95229.69;;;2.33;98.25
30110;BME280;14965;50.660;13.226;2022-11-06T01:49:05;95222.31;;;2.34;98.09
30110;BME280;14965;50.660;13.226;2022-11-06T01:51:38;95226.19;;;2.33;98.81
30110;BME280;14965;50.660;13.226;2022-11-06T01:54:07;95224.63;;;2.32;98.67
30110;BME280;14965;50.660;13.226;2022-11-06T01:56:38;95218.38;;;2.28;98.50
30110;BME280;14965;50.660;13.226;2022-11-06T01:59:08;95219.84;;;2.21;97.76
30110;BME280;14965;50.660;13.226;2022-11-06T02:01:38;95218.25;;;2.13;97.68
30110;BME280;14965;50.660;13.226;2022-11-06T02:04:10;95220.16;;;2.09;97.46
30110;BME280;14965;50.660;13.226;2022-11-06T02:06:38;95216.25;;;2.07;97.16
30110;BME280;14965;50.660;13.226;2022-11-06T02:09:04;95212.72;;;2.06;97.33
30110;BME280;14965;50.660;13.226;2022-11-06T02:11:30;95211.53;;;2.04;97.57
30110;BME280;14965;50.660;13.226;2022-11-06T02:14:05;95200.63;;;2.04;97.46
30110;BME280;14965;50.660;13.226;2022-11-06T02:16:52;95199.09;;;2.06;96.55
30110;BME280;14965;50.660;13.226;2022-11-06T02:19:56;95193.75;;;2.13;97.18
30110;BME280;14965;50.660;13.226;2022-11-06T02:22:53;95194.56;;;2.17;98.05
30110;BME280;14965;50.660;13.226;2022-11-06T02:25:42;95192.69;;;2.29;97.60
30110;BME280;14965;50.660;13.226;2022-11-06T02:28:19;95190.00;;;2.36;98.38
30110;BME280;14965;50.660;13.226;2022-11-06T02:30:48;95188.50;;;2.38;98.44
30110;BME280;14965;50.660;13.226;2022-11-06T02:33:24;95183.00;;;2.35;98.87
30110;BME280;14965;50.660;13.226;2022-11-06T02:35:59;95182.22;;;2.38;98.38
30110;BME280;14965;50.660;13.226;2022-11-06T02:38:33;95186.53;;;2.39;98.65
30110;BME280;14965;50.660;13.226;2022-11-06T02:41:06;95184.97;;;2.38;98.87
30110;BME280;14965;50.660;13.226;2022-11-06T02:43:39;95188.84;;;2.37;99.22
30110;BME280;14965;50.660;13.226;2022-11-06T02:46:13;95184.56;;;2.36;98.37
30110;BME280;14965;50.660;13.226;2022-11-06T02:48:46;95200.91;;;2.36;98.63
30110;BME280;14965;50.660;13.226;2022-11-06T02:51:19;95184.56;;;2.36;99.17
30110;BME280;14965;50.660;13.226;2022-11-06T02:53:47;95184.22;;;2.41;98.89
30110;BME280;14965;50.660;13.226;2022-11-06T02:56:19;95183.06;;;2.45;99.17
30110;BME280;14965;50.660;13.226;2022-11-06T02:58:53;95184.28;;;2.52;98.89
30110;BME280;14965;50.660;13.226;2022-11-06T03:01:27;95181.97;;;2.54;98.84
30110;BME280;14965;50.660;13.226;2022-11-06T03:04:00;95169.50;;;2.53;99.18
30110;BME280;14965;50.660;13.226;2022-11-06T03:06:33;95171.44;;;2.52;99.54
30110;BME280;14965;50.660;13.226;2022-11-06T03:09:05;95170.66;;;2.52;99.14
30110;BME280;14965;50.660;13.226;2022-11-06T03:11:35;95168.69;;;2.48;99.02
30110;BME280;14965;50.660;13.226;2022-11-06T03:14:06;95167.50;;;2.46;98.46
30110;BME280;14965;50.660;13.226;2022-11-06T03:16:45;95169.81;;;2.40;98.31
30110;BME280;14965;50.660;13.226;2022-11-06T03:19:23;95162.34;;;2.34;97.39
30110;BME280;14965;50.660;13.226;2022-11-06T03:21:59;95168.53;;;2.27;97.47
30110;BME280;14965;50.660;13.226;2022-11-06T03:24:33;95168.50;;;2.23;97.64
30110;BME280;14965;50.660;13.226;2022-11-06T03:27:07;95174.31;;;2.18;97.58
30110;BME280;14965;50.660;13.226;2022-11-06T03:29:42;95167.66;;;2.16;97.37
30110;BME280;14965;50.660;13.226;2022-11-06T03:32:19;95170.34;;;2.12;96.42
30110;BME280;14965;50.660;13.226;2022-11-06T03:34:53;95167.22;;;2.10;96.49
30110;BME280;14965;50.660;13.226;2022-11-06T03:37:27;95166.41;;;2.06;96.65
30110;BME280;14965;50.660;13.226;2022-11-06T03:40:01;95167.16;;;2.03;96.19
30110;BME280;14965;50.660;13.226;2022-11-06T03:42:30;95165.22;;;2.04;96.79
30110;BME280;14965;50.660;13.226;2022-11-06T03:45:06;95159.41;;;2.05;97.03
30110;BME280;14965;50.660;13.226;2022-11-06T03:47:38;95153.97;;;2.09;96.80
30110;BME280;14965;50.660;13.226;2022-11-06T03:50:14;95158.72;;;2.15;97.02
30110;BME280;14965;50.660;13.226;2022-11-06T03:52:48;95152.09;;;2.16;97.54
30110;BME280;14965;50.660;13.226;2022-11-06T03:55:20;95145.50;;;2.17;97.80
30110;BME280;14965;50.660;13.226;2022-11-06T03:57:53;95152.16;;;2.23;97.29
30110;BME280;14965;50.660;13.226;2022-11-06T04:00:22;95150.63;;;2.30;98.22
30110;BME280;14965;50.660;13.226;2022-11-06T04:02:52;95147.97;;;2.37;97.99
30110;BME280;14965;50.660;13.226;2022-11-06T04:05:23;95150.34;;;2.45;98.31
30110;BME280;14965;50.660;13.226;2022-11-06T04:07:53;95143.78;;;2.54;98.22
30110;BME280;14965;50.660;13.226;2022-11-06T04:10:20;95151.59;;;2.59;98.24
30110;BME280;14965;50.660;13.226;2022-11-06T04:12:49;95156.31;;;2.62;98.52
30110;BME280;14965;50.660;13.226;2022-11-06T04:15:19;95153.19;;;2.60;98.11
30110;BME280;14965;50.660;13.226;2022-11-06T04:17:47;95162.09;;;2.53;97.61
30110;BME280;14965;50.660;13.226;2022-11-06T04:20:18;95146.84;;;2.45;97.42
30110;BME280;14965;50.660;13.226;2022-11-06T04:22:52;95152.63;;;2.36;97.00
30110;BME280;14965;50.660;13.226;2022-11-06T04:25:33;95147.88;;;2.22;95.83
30110;BME280;14965;50.660;13.226;2022-11-06T04:28:16;95151.69;;;2.14;95.43
30110;BME280;14965;50.660;13.226;2022-11-06T04:30:55;95151.63;;;2.07;95.49
30110;BME280;14965;50.660;13.226;2022-11-06T04:33:38;95151.25;;;2.05;95.25
30110;BME280;14965;50.660;13.226;2022-11-06T04:36:18;95148.94;;;2.11;95.77
30110;BME280;14965;50.660;13.226;2022-11-06T04:38:56;95150.97;;;2.17;95.57
30110;BME280;14965;50.660;13.226;2022-11-06T04:41:27;95146.28;;;2.21;95.38
30110;BME280;14965;50.660;13.226;2022-11-06T04:44:01;95139.66;;;2.19;95.49
30110;BME280;14965;50.660;13.226;2022-11-06T04:46:36;95146.25;;;2.14;95.54
30110;BME280;14965;50.660;13.226;2022-11-06T04:49:07;95139.97;;;2.07;95.65
30110;BME280;14965;50.660;13.226;2022-11-06T04:51:36;95139.16;;;2.03;95.24
30110;BME280;14965;50.660;13.226;2022-11-06T04:54:04;95142.25;;;2.01;95.27
30110;BME280;14965;50.660;13.226;2022-11-06T04:56:34;95135.19;;;1.96;95.77
30110;BME280;14965;50.660;13.226;2022-11-06T04:59:01;95128.97;;;1.96;95.78
30110;BME280;14965;50.660;13.226;2022-11-06T05:01:27;95122.38;;;1.97;96.01
30110;BME280;14965;50.660;13.226;2022-11-06T05:03:53;95125.91;;;2.01;96.22
30110;BME280;14965;50.660;13.226;2022-11-06T05:06:20;95131.75;;;2.03;95.80
30110;BME280;14965;50.660;13.226;2022-11-06T05:08:46;95125.56;;;2.06;95.81
30110;BME280;14965;50.660;13.226;2022-11-06T05:11:13;95130.66;;;2.11;95.98
30110;BME280;14965;50.660;13.226;2022-11-06T05:13:39;95116.63;;;2.13;96.01
30110;BME280;14965;50.660;13.226;2022-11-06T05:16:06;95117.44;;;2.13;95.30
30110;BME280;14965;50.660;13.226;2022-11-06T05:18:32;95115.88;;;2.12;95.62
30110;BME280;14965;50.660;13.226;2022-11-06T05:20:59;95104.59;;;2.14;95.28
30110;BME280;14965;50.660;13.226;2022-11-06T05:23:27;95100.31;;;2.16;95.43
30110;BME280;14965;50.660;13.226;2022-11-06T05:25:53;95105.81;;;2.20;94.96
30110;BME280;14965;50.660;13.226;2022-11-06T05:28:19;95102.31;;;2.23;95.00
30110;BME280;14965;50.660;13.226;2022-11-06T05:30:45;95101.56;;;2.26;95.41
30110;BME280;14965;50.660;13.226;2022-11-06T05:33:11;95093.03;;;2.31;95.80
30110;BME280;14965;50.660;13.226;2022-11-06T05:35:37;95106.69;;;2.35;95.89
30110;BME280;14965;50.660;13.226;2022-11-06T05:38:03;95104.38;;;2.40;95.45
30110;BME280;14965;50.660;13.226;2022-11-06T05:40:30;95109.09;;;2.43;95.98
30110;BME280;14965;50.660;13.226;2022-11-06T05:42:56;95109.47;;;2.45;95.45
30110;BME280;14965;50.660;13.226;2022-11-06T05:45:22;95103.66;;;2.47;95.11
30110;BME280;14965;50.660;13.226;2022-11-06T05:47:48;95101.72;;;2.47;95.62
30110;BME280;14965;50.660;13.226;2022-11-06T05:50:15;95104.03;;;2.49;95.10
30110;BME280;14965;50.660;13.226;2022-11-06T05:52:41;95121.59;;;2.52;95.70
30110;BME280;14965;50.660;13.226;2022-11-06T05:55:08;95118.88;;;2.52;95.87
30110;BME280;14965;50.660;13.226;2022-11-06T05:57:35;95111.06;;;2.50;95.10
30110;BME280;14965;50.660;13.226;2022-11-06T06:00:03;95120.00;;;2.47;96.04
30110;BME280;14965;50.660;13.226;2022-11-06T06:02:29;95124.66;;;2.43;95.68
30110;BME280;14965;50.660;13.226;2022-11-06T06:04:55;95123.06;;;2.42;96.01
30110;BME280;14965;50.660;13.226;2022-11-06T06:07:21;95119.19;;;2.39;95.84
30110;BME280;14965;50.660;13.226;2022-11-06T06:09:47;95119.53;;;2.38;95.14
30110;BME280;14965;50.660;13.226;2022-11-06T06:12:14;95120.72;;;2.37;95.98
30110;BME280;14965;50.660;13.226;2022-11-06T06:14:41;95113.69;;;2.36;95.54
30110;BME280;14965;50.660;13.226;2022-11-06T06:17:07;95121.47;;;2.34;95.44
30110;BME280;14965;50.660;13.226;2022-11-06T06:19:34;95122.28;;;2.34;95.35
30110;BME280;14965;50.660;13.226;2022-11-06T06:22:00;95118.75;;;2.37;95.47
30110;BME280;14965;50.660;13.226;2022-11-06T06:24:26;95123.47;;;2.40;95.12
30110;BME280;14965;50.660;13.226;2022-11-06T06:26:52;95137.88;;;2.41;95.37
30110;BME280;14965;50.660;13.226;2022-11-06T06:29:18;95130.09;;;2.39;95.31
30110;BME280;14965;50.660;13.226;2022-11-06T06:31:45;95132.81;;;2.39;95.18
30110;BME280;14965;50.660;13.226;2022-11-06T06:45:03;95134.75;;;2.42;95.95
30110;BME280;14965;50.660;13.226;2022-11-06T06:47:31;95137.13;;;2.44;95.39
30110;BME280;14965;50.660;13.226;2022-11-06T06:50:00;95142.97;;;2.46;96.24
30110;BME280;14965;50.660;13.226;2022-11-06T06:52:26;95141.03;;;2.50;96.08
30110;BME280;14965;50.660;13.226;2022-11-06T06:54:52;95143.00;;;2.53;95.91
30110;BME280;14965;50.660;13.226;2022-11-06T06:57:19;95137.59;;;2.57;96.17
30110;BME280;14965;50.660;13.226;2022-11-06T06:59:45;95143.06;;;2.60;96.61
30110;BME280;14965;50.660;13.226;2022-11-06T07:02:11;95143.88;;;2.64;96.63
30110;BME280;14965;50.660;13.226;2022-11-06T07:04:39;95146.63;;;2.68;96.15
30110;BME280;14965;50.660;13.226;2022-11-06T07:07:17;95146.22;;;2.69;96.32
30110;BME280;14965;50.660;13.226;2022-11-06T07:09:44;95150.13;;;2.68;96.45
30110;BME280;14965;50.660;13.226;2022-11-06T07:12:10;95165.72;;;2.68;96.23
30110;BME280;14965;50.660;13.226;2022-11-06T07:14:39;95147.75;;;2.67;96.40
30110;BME280;14965;50.660;13.226;2022-11-06T07:17:06;95159.13;;;2.72;97.19
30110;BME280;14965;50.660;13.226;2022-11-06T07:19:33;95150.56;;;2.78;97.08
30110;BME280;14965;50.660;13.226;2022-11-06T07:22:02;95145.91;;;2.82;97.35
30110;BME280;14965;50.660;13.226;2022-11-06T07:24:30;95140.13;;;2.90;97.44
30110;BME280;14965;50.660;13.226;2022-11-06T07:26:59;95134.31;;;2.99;97.27
30110;BME280;14965;50.660;13.226;2022-11-06T07:29:28;95130.81;;;3.09;97.21
30110;BME280;14965;50.660;13.226;2022-11-06T07:31:57;95136.31;;;3.16;97.33
30110;BME280;14965;50.660;13.226;2022-11-06T07:34:25;95139.09;;;3.23;97.54
30110;BME280;14965;50.660;13.226;2022-11-06T07:36:56;95137.53;;;3.30;97.15
30110;BME280;14965;50.660;13.226;2022-11-06T07:39:24;95132.50;;;3.35;96.89
30110;BME280;14965;50.660;13.226;2022-11-06T07:41:53;95134.06;;;3.40;96.76
30110;BME280;14965;50.660;13.226;2022-11-06T07:44:22;95146.94;;;3.46;96.73
30110;BME280;14965;50.660;13.226;2022-11-06T07:46:50;95133.31;;;3.50;96.54
30110;BME280;14965;50.660;13.226;2022-11-06T07:49:23;95131.38;;;3.54;96.53
30110;BME280;14965;50.660;13.226;2022-11-06T07:51:53;95141.13;;;3.59;96.19
30110;BME280;14965;50.660;13.226;2022-11-06T07:54:20;95134.50;;;3.63;95.95
30110;BME280;14965;50.660;13.226;2022-11-06T07:56:52;95145.06;;;3.68;96.26
30110;BME280;14965;50.660;13.226;2022-11-06T07:59:19;95135.72;;;3.73;96.20
30110;BME280;14965;50.660;13.226;2022-11-06T08:01:45;95131.81;;;3.78;96.02
30110;BME280;14965;50.660;13.226;2022-11-06T08:04:12;95129.47;;;3.83;96.02
30110;BME280;14965;50.660;13.226;2022-11-06T08:06:38;95130.25;;;3.87;95.68
30110;BME280;14965;50.660;13.226;2022-11-06T08:09:06;95121.66;;;3.92;95.79
30110;BME280;14965;50.660;13.226;2022-11-06T08:11:33;95115.44;;;3.99;95.46
30110;BME280;14965;50.660;13.226;2022-11-06T08:14:02;95118.19;;;4.06;95.22
30110;BME280;14965;50.660;13.226;2022-11-06T08:16:28;95118.56;;;4.19;94.90
30110;BME280;14965;50.660;13.226;2022-11-06T08:18:55;95120.50;;;4.33;94.06
30110;BME280;14965;50.660;13.226;2022-11-06T08:21:21;95119.72;;;4.43;93.70
30110;BME280;14965;50.660;13.226;2022-11-06T08:23:48;95117.38;;;4.52;93.47
30110;BME280;14965;50.660;13.226;2022-11-06T08:26:14;95115.38;;;4.63;93.20
30110;BME280;14965;50.660;13.226;2022-11-06T08:28:41;95124.34;;;4.71;92.61
30110;BME280;14965;50.660;13.226;2022-11-06T08:31:09;95121.63;;;4.78;92.12
30110;BME280;14965;50.660;13.226;2022-11-06T08:33:36;95125.13;;;4.86;92.09
30110;BME280;14965;50.660;13.226;2022-11-06T08:36:04;95126.66;;;4.94;91.79
30110;BME280;14965;50.660;13.226;2022-11-06T08:38:34;95119.59;;;5.00;91.66
30110;BME280;14965;50.660;13.226;2022-11-06T08:41:04;95117.63;;;5.04;91.06
30110;BME280;14965;50.660;13.226;2022-11-06T08:43:31;95119.56;;;5.11;91.29
30110;BME280;14965;50.660;13.226;2022-11-06T08:48:41;95104.63;;;5.26;90.98
30110;BME280;14965;50.660;13.226;2022-11-06T08:51:07;95102.63;;;5.37;90.41
30110;BME280;14965;50.660;13.226;2022-11-06T08:53:34;95109.63;;;5.45;90.14
30110;BME280;14965;50.660;13.226;2022-11-06T08:56:02;95101.34;;;5.56;89.95
30110;BME280;14965;50.660;13.226;2022-11-06T08:58:28;95097.41;;;5.64;89.52
30110;BME280;14965;50.660;13.226;2022-11-06T09:00:54;95098.88;;;5.72;89.14
30110;BME280;14965;50.660;13.226;2022-11-06T09:03:20;95101.59;;;5.80;88.68
30110;BME280;14965;50.660;13.226;2022-11-06T09:05:48;95101.16;;;5.85;88.32
30110;BME280;14965;50.660;13.226;2022-11-06T09:08:14;95096.81;;;5.91;87.30
30110;BME280;14965;50.660;13.226;2022-11-06T09:10:42;95091.31;;;5.98;87.08
30110;BME280;14965;50.660;13.226;2022-11-06T09:13:09;95081.91;;;5.99;86.85
30110;BME280;14965;50.660;13.226;2022-11-06T09:15:36;95078.75;;;6.01;87.15
30110;BME280;14965;50.660;13.226;2022-11-06T09:18:03;95074.03;;;6.05;86.89
30110;BME280;14965;50.660;13.226;2022-11-06T09:20:29;95086.91;;;6.11;86.76
30110;BME280;14965;50.660;13.226;2022-11-06T09:23:01;95085.66;;;6.19;86.25
30110;BME280;14965;50.660;13.226;2022-11-06T09:25:28;95085.19;;;6.28;86.71
30110;BME280;14965;50.660;13.226;2022-11-06T09:27:55;95085.91;;;6.36;86.65
30110;BME280;14965;50.660;13.226;2022-11-06T09:30:22;95087.41;;;6.44;86.22
30110;BME280;14965;50.660;13.226;2022-11-06T09:32:52;95088.09;;;6.52;85.92
30110;BME280;14965;50.660;13.226;2022-11-06T09:35:21;95080.31;;;6.46;84.70
30110;BME280;14965;50.660;13.226;2022-11-06T09:37:48;95078.03;;;6.38;84.23
30110;BME280;14965;50.660;13.226;2022-11-06T09:40:24;95069.41;;;6.39;84.74
30110;BME280;14965;50.660;13.226;2022-11-06T09:43:10;95065.00;;;6.53;85.13
30110;BME280;14965;50.660;13.226;2022-11-06T09:45:40;95057.81;;;6.62;84.72
30110;BME280;14965;50.660;13.226;2022-11-06T09:48:17;95056.13;;;6.72;84.96
30110;BME280;14965;50.660;13.226;2022-11-06T09:50:51;95052.13;;;6.80;84.23
30110;BME280;14965;50.660;13.226;2022-11-06T09:53:38;95040.31;;;6.87;84.17
30110;BME280;14965;50.660;13.226;2022-11-06T09:56:11;95043.75;;;6.94;83.88
30110;BME280;14965;50.660;13.226;2022-11-06T09:58:50;95034.63;;;7.01;83.97
30110;BME280;14965;50.660;13.226;2022-11-06T10:01:50;95038.88;;;7.06;82.90
30110;BME280;14965;50.660;13.226;2022-11-06T10:04:31;95028.63;;;7.10;82.76
30110;BME280;14965;50.660;13.226;2022-11-06T10:07:00;95030.94;;;7.15;82.88
30110;BME280;14965;50.660;13.226;2022-11-06T10:09:27;95036.38;;;7.18;83.23
30110;BME280;14965;50.660;13.226;2022-11-06T10:12:07;95034.72;;;7.24;82.54
30110;BME280;14965;50.660;13.226;2022-11-06T10:14:53;95028.72;;;7.33;82.80
30110;BME280;14965;50.660;13.226;2022-11-06T10:17:43;95028.22;;;7.42;82.63
30110;BME280;14965;50.660;13.226;2022-11-06T10:20:18;95026.88;;;7.54;82.58
30110;BME280;14965;50.660;13.226;2022-11-06T10:22:58;95026.34;;;7.62;81.89
30110;BME280;14965;50.660;13.226;2022-11-06T10:25:43;95008.59;;;7.67;81.34
30110;BME280;14965;50.660;13.226;2022-11-06T10:28:45;95009.22;;;7.78;80.28
30110;BME280;14965;50.660;13.226;2022-11-06T10:31:29;95011.13;;;7.81;79.46
30110;BME280;14965;50.660;13.226;2022-11-06T10:34:07;95009.88;;;7.86;79.28
30110;BME280;14965;50.660;13.226;2022-11-06T10:36:42;95003.91;;;7.91;79.06
30110;BME280;14965;50.660;13.226;2022-11-06T10:39:16;95000.75;;;7.92;78.63
30110;BME280;14965;50.660;13.226;2022-11-06T10:41:50;95001.47;;;7.96;78.66
30110;BME280;14965;50.660;13.226;2022-11-06T10:44:24;94997.81;;;8.03;78.20
30110;BME280;14965;50.660;13.226;2022-11-06T10:46:59;95002.41;;;8.10;77.78
30110;BME280;14965;50.660;13.226;2022-11-06T10:49:37;94987.78;;;8.16;77.62
30110;BME280;14965;50.660;13.226;2022-11-06T10:52:43;94980.50;;;8.26;77.49
30110;BME280;14965;50.660;13.226;2022-11-06T10:55:57;94983.91;;;8.34;76.94
30110;BME280;14965;50.660;13.226;2022-11-06T10:58:30;94983.38;;;8.19;74.88
30110;BME280;14965;50.660;13.226;2022-11-06T11:01:00;94972.75;;;8.21;75.55
30110;BME280;14965;50.660;13.226;2022-11-06T11:03:32;94978.97;;;8.25;74.77
30110;BME280;14965;50.660;13.226;2022-11-06T11:06:00;94969.00;;;8.11;73.68
30110;BME280;14965;50.660;13.226;2022-11-06T11:08:39;94974.84;;;8.13;73.17
30110;BME280;14965;50.660;13.226;2022-11-06T11:11:21;94967.69;;;8.19;74.61
30110;BME280;14965;50.660;13.226;2022-11-06T11:13:50;94962.41;;;8.29;75.60
30110;BME280;14965;50.660;13.226;2022-11-06T11:16:38;94949.34;;;8.33;75.20
30110;BME280;14965;50.660;13.226;2022-11-06T11:19:22;94951.25;;;8.36;74.96
30110;BME280;14965;50.660;13.226;2022-11-06T11:21:53;94946.13;;;8.38;74.82
30110;BME280;14965;50.660;13.226;2022-11-06T11:24:19;94938.22;;;8.40;74.40
30110;BME280;14965;50.660;13.226;2022-11-06T11:26:48;94940.13;;;8.43;74.53
30110;BME280;14965;50.660;13.226;2022-11-06T11:29:22;94933.41;;;8.44;74.92
30110;BME280;14965;50.660;13.226;2022-11-06T11:31:55;94926.75;;;8.45;74.54
30110;BME280;14965;50.660;13.226;2022-11-06T11:34:25;94920.16;;;8.39;75.10
30110;BME280;14965;50.660;13.226;2022-11-06T11:36:57;94921.38;;;8.38;75.17
30110;BME280;14965;50.660;13.226;2022-11-06T11:39:28;94917.50;;;8.32;74.57
30110;BME280;14965;50.660;13.226;2022-11-06T11:42:26;94918.31;;;8.32;75.68
30110;BME280;14965;50.660;13.226;2022-11-06T11:45:11;94924.22;;;8.31;75.44
30110;BME280;14965;50.660;13.226;2022-11-06T11:47:42;94919.28;;;8.22;76.05
30110;BME280;14965;50.660;13.226;2022-11-06T11:50:29;94912.16;;;8.24;74.91
30110;BME280;14965;50.660;13.226;2022-11-06T11:53:02;94916.13;;;8.23;74.91
30110;BME280;14965;50.660;13.226;2022-11-06T11:55:29;94909.47;;;8.21;74.98
30110;BME280;14965;50.660;13.226;2022-11-06T11:57:58;94909.53;;;8.17;74.36
30110;BME280;14965;50.660;13.226;2022-11-06T12:00:27;94907.56;;;8.18;75.01
30110;BME280;14965;50.660;13.226;2022-11-06T12:02:59;94907.16;;;8.19;75.27
30110;BME280;14965;50.660;13.226;2022-11-06T12:05:33;94908.34;;;8.18;75.50
30110;BME280;14965;50.660;13.226;2022-11-06T12:08:00;94902.75;;;8.22;75.33
30110;BME280;14965;50.660;13.226;2022-11-06T12:10:30;94899.94;;;8.26;76.16
30110;BME280;14965;50.660;13.226;2022-11-06T12:13:00;94900.66;;;8.30;75.70
30110;BME280;14965;50.660;13.226;2022-11-06T12:15:36;94892.41;;;8.30;75.78
30110;BME280;14965;50.660;13.226;2022-11-06T12:18:10;94892.03;;;8.28;76.06
30110;BME280;14965;50.660;13.226;2022-11-06T12:20:45;94886.19;;;8.26;76.05
30110;BME280;14965;50.660;13.226;2022-11-06T12:23:21;94873.97;;;8.27;76.63
30110;BME280;14965;50.660;13.226;2022-11-06T12:25:58;94867.00;;;8.22;76.81
30110;BME280;14965;50.660;13.226;2022-11-06T12:28:29;94863.47;;;8.21;76.71
30110;BME280;14965;50.660;13.226;2022-11-06T12:31:02;94859.53;;;8.22;76.83
30110;BME280;14965;50.660;13.226;2022-11-06T12:33:32;94853.63;;;8.24;76.63
30110;BME280;14965;50.660;13.226;2022-11-06T12:36:04;94839.50;;;8.22;77.70
30110;BME280;14965;50.660;13.226;2022-11-06T12:38:40;94832.50;;;8.17;76.76
30110;BME280;14965;50.660;13.226;2022-11-06T12:41:13;94825.59;;;8.09;76.71
30110;BME280;14965;50.660;13.226;2022-11-06T12:43:43;94831.94;;;8.06;76.94
30110;BME280;14965;50.660;13.226;2022-11-06T12:46:25;94835.13;;;8.05;77.31
30110;BME280;14965;50.660;13.226;2022-11-06T12:49:27;94828.06;;;8.04;77.78
30110;BME280;14965;50.660;13.226;2022-11-06T12:52:10;94825.31;;;8.04;77.62
30110;BME280;14965;50.660;13.226;2022-11-06T12:54:56;94824.97;;;8.02;78.62
30110;BME280;14965;50.660;13.226;2022-11-06T12:57:36;94824.25;;;7.97;77.70
30110;BME280;14965;50.660;13.226;2022-11-06T13:00:10;94814.97;;;7.91;77.82
30110;BME280;14965;50.660;13.226;2022-11-06T13:02:58;94821.72;;;7.87;78.21
30110;BME280;14965;50.660;13.226;2022-11-06T13:05:32;94816.28;;;7.83;77.69
30110;BME280;14965;50.660;13.226;2022-11-06T13:08:23;94803.38;;;7.80;77.55
30110;BME280;14965;50.660;13.226;2022-11-06T13:11:11;94805.78;;;7.78;77.29
30110;BME280;14965;50.660;13.226;2022-11-06T13:13:50;94811.28;;;7.78;77.79
30110;BME280;14965;50.660;13.226;2022-11-06T13:16:29;94816.13;;;7.70;77.92
30110;BME280;14965;50.660;13.226;2022-11-06T13:19:04;94812.25;;;7.68;78.82
30110;BME280;14965;50.660;13.226;2022-11-06T13:21:59;94805.19;;;7.67;79.17
30110;BME280;14965;50.660;13.226;2022-11-06T13:24:35;94803.72;;;7.62;79.58
30110;BME280;14965;50.660;13.226;2022-11-06T13:27:14;94801.75;;;7.63;79.59
30110;BME280;14965;50.660;13.226;2022-11-06T13:29:44;94816.69;;;7.62;79.82
30110;BME280;14965;50.660;13.226;2022-11-06T13:32:16;94811.31;;;7.55;80.03
30110;BME280;14965;50.660;13.226;2022-11-06T13:34:49;94802.78;;;7.49;80.29
30110;BME280;14965;50.660;13.226;2022-11-06T13:37:24;94808.41;;;7.42;80.06